Time;durP1;ratioP1;P1;durP2;ratioP2;P2;SDS_P1;SDS_P2;PMS_P1;PMS_P2;Temp;Humidity;BMP_temperature;BMP_pressure;BME280_temperature;BME280_humidity;BME280_pressure;Samples;Min_cycle;Max_cycle;Signal;HPM_P1;HPM_P2
2023/07/16 00:00:23;;;;;;;10.05;3.90;;;16.40;99.90;;;;;;7369513;19;20014;-59
2023/07/16 00:02:53;;;;;;;11.45;3.72;;;16.40;99.90;;;;;;7361763;19;20028;-59
2023/07/16 00:05:19;;;;;;;8.45;3.55;;;16.30;99.90;;;;;;7364636;19;20019;-59
2023/07/16 00:07:45;;;;;;;8.30;3.50;;;16.30;99.90;;;;;;7372126;19;20022;-59
2023/07/16 00:10:12;;;;;;;8.52;3.40;;;16.30;99.90;;;;;;7375777;19;20018;-58
2023/07/16 00:12:38;;;;;;;8.18;3.70;;;16.20;99.90;;;;;;7381070;19;20328;-58
2023/07/16 00:15:06;;;;;;;9.32;3.78;;;16.20;99.90;;;;;;7379112;19;20501;-58
2023/07/16 00:17:33;;;;;;;6.20;3.33;;;16.20;99.90;;;;;;7374552;19;21016;-59
2023/07/16 00:20:00;;;;;;;10.05;3.15;;;16.20;99.90;;;;;;7375407;19;20025;-61
2023/07/16 00:22:26;;;;;;;9.38;4.10;;;16.10;99.90;;;;;;7375747;19;20010;-60
2023/07/16 00:24:52;;;;;;;10.25;3.53;;;16.20;99.90;;;;;;7379596;19;20051;-60
2023/07/16 00:27:18;;;;;;;9.95;3.65;;;16.20;99.90;;;;;;7367914;19;20022;-61
2023/07/16 00:29:46;;;;;;;8.57;3.53;;;16.20;99.90;;;;;;7374486;19;20114;-61
2023/07/16 00:32:13;;;;;;;9.23;3.22;;;16.40;99.90;;;;;;7374636;19;20039;-61
2023/07/16 00:34:39;;;;;;;6.43;3.30;;;16.40;99.90;;;;;;7373360;19;20477;-58
2023/07/16 00:37:08;;;;;;;12.32;3.83;;;16.40;99.90;;;;;;7375842;19;20022;-58
2023/07/16 00:39:35;;;;;;;8.85;2.88;;;16.40;99.90;;;;;;7375192;19;20022;-58
2023/07/16 00:42:02;;;;;;;8.85;3.58;;;16.40;99.90;;;;;;7373874;19;20014;-58
2023/07/16 00:44:30;;;;;;;13.15;3.30;;;16.30;99.90;;;;;;7376302;19;20042;-59
2023/07/16 00:46:56;;;;;;;11.80;3.45;;;16.30;99.90;;;;;;7372349;19;20436;-58
2023/07/16 00:49:24;;;;;;;9.63;3.30;;;16.20;99.90;;;;;;7374373;19;20019;-58
2023/07/16 00:51:55;;;;;;;10.40;3.90;;;16.20;99.90;;;;;;7374158;19;20380;-58
2023/07/16 00:54:22;;;;;;;10.02;3.38;;;16.10;99.90;;;;;;7368392;19;20025;-58
2023/07/16 00:56:49;;;;;;;12.85;3.63;;;16.10;99.90;;;;;;7373869;19;20482;-58
2023/07/16 00:59:15;;;;;;;9.82;3.22;;;16.00;99.90;;;;;;7378768;19;20825;-58
2023/07/16 01:01:42;;;;;;;8.52;3.17;;;16.00;99.90;;;;;;7375210;19;20048;-61
2023/07/16 01:04:08;;;;;;;10.30;4.00;;;15.90;99.90;;;;;;7379566;19;20319;-61
2023/07/16 01:06:44;;;;;;;9.15;3.53;;;15.80;99.90;;;;;;7376233;19;20392;-61
2023/07/16 01:09:18;;;;;;;10.85;3.75;;;15.80;99.90;;;;;;7368747;19;20390;-61
2023/07/16 01:11:46;;;;;;;12.50;3.80;;;15.70;99.90;;;;;;7374900;19;20067;-61
2023/07/16 01:14:17;;;;;;;11.65;3.80;;;15.70;99.90;;;;;;7372260;19;20033;-62
2023/07/16 01:16:44;;;;;;;13.15;3.90;;;15.60;99.90;;;;;;7368712;19;20362;-61
2023/07/16 01:19:13;;;;;;;11.70;4.22;;;15.70;99.90;;;;;;7375502;19;20022;-59
2023/07/16 01:22:05;;;;;;;7.28;3.05;;;15.60;99.90;;;;;;7371937;19;20022;-59
2023/07/16 01:24:43;;;;;;;12.25;3.85;;;15.60;99.90;;;;;;7370600;19;20112;-57
2023/07/16 01:27:44;;;;;;;9.68;3.70;;;15.60;99.90;;;;;;7370766;19;20018;-61
2023/07/16 01:30:16;;;;;;;11.95;4.35;;;15.50;99.90;;;;;;7374353;19;20498;-58
2023/07/16 01:32:44;;;;;;;10.93;3.90;;;15.60;99.90;;;;;;7371225;19;20018;-59
2023/07/16 01:35:11;;;;;;;7.82;4.13;;;15.60;99.90;;;;;;7373058;19;20414;-58
2023/07/16 01:37:38;;;;;;;9.93;4.05;;;15.60;99.90;;;;;;7370350;19;20405;-61
2023/07/16 01:40:08;;;;;;;12.15;4.50;;;15.70;99.90;;;;;;7375334;19;20390;-61
2023/07/16 01:42:35;;;;;;;8.60;4.13;;;15.70;99.90;;;;;;7365332;19;20019;-61
2023/07/16 01:45:03;;;;;;;13.52;4.35;;;15.90;99.90;;;;;;7361913;19;20026;-61
2023/07/16 01:47:38;;;;;;;11.38;4.07;;;16.00;99.90;;;;;;7372463;19;20023;-62
2023/07/16 01:50:05;;;;;;;9.02;4.03;;;16.00;99.90;;;;;;7371473;19;20060;-61
2023/07/16 01:52:31;;;;;;;11.85;3.97;;;16.10;99.90;;;;;;7372524;19;20397;-62
2023/07/16 01:54:57;;;;;;;9.57;4.43;;;16.10;99.90;;;;;;7371104;19;20474;-61
2023/07/16 01:57:24;;;;;;;8.35;3.90;;;16.30;99.90;;;;;;7370894;19;20021;-61
2023/07/16 01:59:50;;;;;;;10.35;4.35;;;16.30;99.90;;;;;;7373123;19;20030;-61
2023/07/16 02:02:16;;;;;;;8.50;4.50;;;16.40;99.90;;;;;;7370658;19;20023;-61
2023/07/16 02:04:42;;;;;;;11.70;4.68;;;16.40;99.90;;;;;;7375033;19;20018;-61
2023/07/16 02:07:08;;;;;;;7.18;4.03;;;16.40;99.90;;;;;;7371310;19;20019;-61
2023/07/16 02:09:38;;;;;;;8.88;4.38;;;16.50;99.90;;;;;;7372233;19;20042;-61
2023/07/16 02:12:04;;;;;;;8.85;4.30;;;16.50;99.90;;;;;;7371572;19;20934;-61
2023/07/16 02:14:31;;;;;;;10.80;5.53;;;16.40;99.90;;;;;;7369475;19;20054;-60
2023/07/16 02:16:57;;;;;;;8.13;4.10;;;16.50;99.90;;;;;;7373963;19;22186;-61
2023/07/16 02:19:26;;;;;;;8.10;3.50;;;16.50;99.90;;;;;;7371098;19;20023;-61
2023/07/16 02:21:54;;;;;;;10.23;5.00;;;16.50;99.90;;;;;;7369051;19;20624;-61
2023/07/16 02:24:20;;;;;;;9.48;4.00;;;16.50;99.90;;;;;;7373638;19;20397;-61
2023/07/16 02:26:46;;;;;;;11.90;4.30;;;16.40;99.90;;;;;;7366331;19;20022;-61
2023/07/16 02:29:13;;;;;;;9.80;4.60;;;16.40;99.90;;;;;;7367059;19;20496;-61
2023/07/16 02:31:39;;;;;;;9.57;5.30;;;16.40;99.90;;;;;;7370201;19;20025;-61
2023/07/16 02:34:05;;;;;;;10.60;4.57;;;16.30;99.90;;;;;;7369289;19;20029;-62
2023/07/16 02:36:33;;;;;;;12.18;5.10;;;16.40;99.90;;;;;;7370143;19;20018;-62
2023/07/16 02:39:00;;;;;;;7.78;4.38;;;16.30;99.90;;;;;;7376328;19;20025;-62
2023/07/16 02:41:26;;;;;;;15.05;5.35;;;16.20;99.90;;;;;;7369198;19;20039;-62
2023/07/16 02:44:01;;;;;;;8.05;4.40;;;16.20;99.90;;;;;;7372923;19;20011;-59
2023/07/16 02:46:27;;;;;;;8.25;4.40;;;16.00;99.90;;;;;;7369804;19;20509;-59
2023/07/16 02:48:56;;;;;;;10.85;4.93;;;16.00;99.90;;;;;;7376151;19;20014;-60
2023/07/16 02:51:22;;;;;;;10.60;4.50;;;16.00;99.90;;;;;;7368351;19;20403;-59
2023/07/16 02:53:48;;;;;;;11.07;4.97;;;15.90;99.90;;;;;;7376366;19;20043;-59
2023/07/16 02:56:17;;;;;;;9.95;4.40;;;15.80;99.90;;;;;;7372640;19;20027;-59
2023/07/16 02:58:43;;;;;;;8.68;4.53;;;15.90;99.90;;;;;;7374092;19;20018;-58
2023/07/16 03:01:10;;;;;;;9.90;5.00;;;15.80;99.90;;;;;;7367274;19;20356;-58
2023/07/16 03:03:36;;;;;;;13.02;4.50;;;15.80;99.90;;;;;;7371546;19;20044;-58
2023/07/16 03:06:03;;;;;;;8.63;4.50;;;15.80;99.90;;;;;;7370495;19;20461;-58
2023/07/16 03:08:31;;;;;;;10.15;5.40;;;15.70;99.90;;;;;;7374688;19;20353;-58
2023/07/16 03:10:58;;;;;;;10.63;4.78;;;15.70;99.90;;;;;;7368809;19;20470;-58
2023/07/16 03:13:24;;;;;;;8.35;4.38;;;15.80;99.90;;;;;;7366781;19;20022;-61
2023/07/16 03:15:51;;;;;;;10.55;5.22;;;15.80;99.90;;;;;;7364648;19;20333;-61
2023/07/16 03:18:20;;;;;;;11.48;5.15;;;15.90;99.90;;;;;;7369054;19;20028;-60
2023/07/16 03:20:47;;;;;;;11.93;5.40;;;15.90;99.90;;;;;;7370566;19;20022;-58
2023/07/16 03:23:13;;;;;;;10.85;5.18;;;15.90;99.90;;;;;;7364819;19;20086;-58
2023/07/16 03:25:40;;;;;;;11.77;5.20;;;15.90;99.90;;;;;;7365092;19;20055;-58
2023/07/16 03:28:06;;;;;;;11.35;4.80;;;15.80;99.90;;;;;;7363363;19;20048;-59
2023/07/16 03:30:33;;;;;;;14.18;5.15;;;15.90;99.90;;;;;;7369473;19;20026;-58
2023/07/16 03:33:02;;;;;;;9.82;4.93;;;15.90;99.90;;;;;;7370307;19;20098;-58
2023/07/16 03:35:28;;;;;;;10.82;5.13;;;15.90;99.90;;;;;;7367479;19;20516;-58
2023/07/16 03:37:54;;;;;;;9.98;5.03;;;15.80;99.90;;;;;;7365364;19;20022;-59
2023/07/16 03:40:27;;;;;;;9.00;4.57;;;15.80;99.90;;;;;;7367561;19;20117;-61
2023/07/16 03:42:54;;;;;;;14.10;5.32;;;15.80;99.90;;;;;;7363441;19;20048;-61
2023/07/16 03:45:20;;;;;;;11.07;5.07;;;15.70;99.90;;;;;;7366181;19;20374;-59
2023/07/16 03:47:47;;;;;;;17.30;5.68;;;15.70;99.90;;;;;;7368441;19;20014;-61
2023/07/16 03:50:13;;;;;;;11.50;5.60;;;15.70;99.90;;;;;;7367039;19;20022;-61
2023/07/16 03:52:39;;;;;;;12.85;5.70;;;15.70;99.90;;;;;;7370779;19;20366;-59
2023/07/16 03:55:06;;;;;;;16.02;5.93;;;15.70;99.90;;;;;;7365152;19;20370;-61
2023/07/16 03:57:33;;;;;;;12.02;5.97;;;15.70;99.90;;;;;;7367460;19;20412;-61
2023/07/16 03:59:59;;;;;;;12.30;6.30;;;15.70;99.90;;;;;;7369569;19;20113;-61
2023/07/16 04:02:26;;;;;;;13.23;6.18;;;15.60;99.90;;;;;;7364323;19;20456;-61
2023/07/16 04:04:52;;;;;;;10.63;5.03;;;15.60;99.90;;;;;;7366489;19;20496;-61
2023/07/16 04:07:18;;;;;;;10.48;4.72;;;15.60;99.90;;;;;;7366089;19;20572;-61
2023/07/16 04:09:45;;;;;;;14.38;5.90;;;15.60;99.90;;;;;;7371423;19;20022;-61
2023/07/16 04:12:11;;;;;;;11.15;5.68;;;15.60;99.90;;;;;;7368607;19;20019;-61
2023/07/16 04:14:37;;;;;;;13.40;5.47;;;15.60;99.90;;;;;;7369431;19;20022;-61
2023/07/16 04:17:04;;;;;;;13.20;5.85;;;15.60;99.90;;;;;;7365211;19;20022;-61
2023/07/16 04:19:30;;;;;;;13.38;5.50;;;15.60;99.90;;;;;;7370972;19;20015;-61
2023/07/16 04:21:56;;;;;;;13.25;5.75;;;15.60;99.90;;;;;;7368724;19;20805;-61
2023/07/16 04:24:23;;;;;;;17.80;5.80;;;15.60;99.90;;;;;;7369277;19;20356;-61
2023/07/16 04:26:49;;;;;;;10.68;4.72;;;15.60;99.90;;;;;;7368227;19;20025;-61
2023/07/16 04:29:16;;;;;;;11.50;5.22;;;15.60;99.90;;;;;;7371517;19;20066;-62
2023/07/16 04:31:42;;;;;;;12.20;5.32;;;15.60;99.90;;;;;;7367638;19;20065;-61
2023/07/16 04:34:08;;;;;;;12.23;5.07;;;15.70;99.90;;;;;;7361521;19;20402;-62
2023/07/16 04:36:35;;;;;;;12.52;5.80;;;15.70;99.90;;;;;;7363535;19;20023;-62
2023/07/16 04:39:01;;;;;;;10.95;5.15;;;15.70;99.90;;;;;;7370602;19;20011;-62
2023/07/16 04:41:28;;;;;;;12.20;5.30;;;15.80;99.90;;;;;;7369828;19;20095;-59
2023/07/16 04:43:55;;;;;;;13.18;5.70;;;15.80;99.90;;;;;;7370380;19;20372;-57
2023/07/16 04:46:21;;;;;;;10.43;4.75;;;15.90;99.90;;;;;;7364891;19;20039;-61
2023/07/16 04:48:48;;;;;;;13.90;5.63;;;15.90;99.90;;;;;;7365330;19;20492;-61
2023/07/16 04:51:14;;;;;;;10.52;5.00;;;16.00;99.90;;;;;;7366175;19;20399;-58
2023/07/16 04:53:40;;;;;;;10.05;5.22;;;16.10;99.90;;;;;;7367297;19;20018;-61
2023/07/16 04:56:14;;;;;;;19.10;5.63;;;16.10;99.90;;;;;;7365101;19;20021;-61
2023/07/16 04:58:41;;;;;;;9.82;5.00;;;16.20;99.90;;;;;;7376767;19;20463;-59
2023/07/16 05:01:08;;;;;;;11.38;4.90;;;16.30;99.90;;;;;;7370268;19;20494;-58
2023/07/16 05:03:35;;;;;;;11.70;5.32;;;16.30;99.90;;;;;;7373742;19;20018;-59
2023/07/16 05:06:02;;;;;;;13.93;5.10;;;16.40;99.90;;;;;;7378050;19;20034;-59
2023/07/16 05:08:32;;;;;;;13.35;5.57;;;16.50;99.90;;;;;;7374575;19;20051;-61
2023/07/16 05:10:59;;;;;;;12.77;5.07;;;16.50;99.90;;;;;;7374494;19;20015;-62
2023/07/16 05:13:25;;;;;;;16.05;4.38;;;16.60;99.90;;;;;;7371370;19;20420;-62
2023/07/16 05:15:52;;;;;;;11.90;4.65;;;16.80;99.90;;;;;;7376844;19;20014;-59
2023/07/16 05:18:18;;;;;;;12.02;4.57;;;17.00;99.90;;;;;;7371085;19;20018;-59
2023/07/16 05:20:48;;;;;;;8.00;4.10;;;17.30;99.90;;;;;;7371791;19;20034;-59
2023/07/16 05:23:14;;;;;;;14.25;5.45;;;17.40;99.90;;;;;;7366676;19;20022;-59
2023/07/16 05:25:49;;;;;;;11.43;4.72;;;17.70;99.90;;;;;;7374308;19;20022;-58
2023/07/16 05:28:17;;;;;;;8.38;4.57;;;17.80;99.90;;;;;;7371141;19;20373;-59
2023/07/16 05:30:43;;;;;;;9.45;4.05;;;18.00;99.90;;;;;;7370640;19;20683;-59
2023/07/16 05:33:12;;;;;;;9.82;3.95;;;18.10;99.90;;;;;;7371597;19;20023;-63
2023/07/16 05:35:39;;;;;;;10.38;4.13;;;18.10;99.90;;;;;;7370860;19;20446;-61
2023/07/16 05:38:05;;;;;;;10.43;4.00;;;18.30;99.90;;;;;;7372846;19;20415;-61
2023/07/16 05:40:32;;;;;;;8.70;3.85;;;18.30;99.90;;;;;;7373459;19;20037;-58
2023/07/16 05:42:59;;;;;;;8.73;4.35;;;18.40;99.90;;;;;;7375040;19;20009;-61
2023/07/16 05:45:36;;;;;;;10.38;4.03;;;18.50;99.90;;;;;;7376918;19;20122;-60
2023/07/16 05:48:36;;;;;;;10.18;4.10;;;18.60;99.90;;;;;;7373751;19;20027;-61
2023/07/16 05:51:03;;;;;;;16.00;5.88;;;18.70;99.90;;;;;;7371469;19;20029;-61
2023/07/16 05:53:29;;;;;;;10.20;4.38;;;18.70;99.90;;;;;;7371753;19;20090;-61
2023/07/16 05:55:56;;;;;;;9.20;4.60;;;18.80;99.90;;;;;;7370845;19;20023;-61
2023/07/16 05:58:22;;;;;;;7.72;4.47;;;18.90;99.90;;;;;;7372567;19;20021;-61
2023/07/16 06:00:48;;;;;;;11.55;5.05;;;19.00;99.90;;;;;;7369350;19;20022;-61
2023/07/16 06:03:16;;;;;;;10.00;4.60;;;19.00;99.90;;;;;;7367666;19;20078;-61
2023/07/16 06:05:43;;;;;;;9.90;4.30;;;19.00;99.90;;;;;;7367611;19;20484;-61
2023/07/16 06:08:09;;;;;;;10.05;4.88;;;18.90;99.90;;;;;;7366080;19;20039;-62
2023/07/16 06:10:35;;;;;;;10.38;4.80;;;19.10;99.90;;;;;;7366565;19;20596;-61
2023/07/16 06:13:02;;;;;;;9.02;4.45;;;19.10;99.90;;;;;;7367331;19;20078;-61
2023/07/16 06:15:28;;;;;;;11.43;5.07;;;19.20;99.90;;;;;;7366933;19;20442;-61
2023/07/16 06:17:54;;;;;;;11.95;4.80;;;19.40;99.90;;;;;;7365497;19;20541;-61
2023/07/16 06:20:21;;;;;;;13.05;4.20;;;19.50;99.90;;;;;;7367814;19;20390;-59
2023/07/16 06:22:47;;;;;;;9.07;4.75;;;19.40;99.90;;;;;;7370467;19;20082;-61
2023/07/16 06:25:13;;;;;;;13.77;4.93;;;19.50;99.90;;;;;;7370534;19;20555;-60
2023/07/16 06:27:39;;;;;;;12.40;6.03;;;19.50;99.90;;;;;;7374709;19;20046;-61
2023/07/16 06:30:06;;;;;;;14.15;10.23;;;19.50;99.90;;;;;;7370193;19;20019;-61
2023/07/16 06:32:33;;;;;;;15.07;8.40;;;19.80;99.90;;;;;;7374482;19;20023;-60
2023/07/16 06:35:02;;;;;;;13.35;9.27;;;20.00;99.90;;;;;;7372065;19;20443;-60
2023/07/16 06:37:29;;;;;;;11.27;7.30;;;20.10;99.90;;;;;;7373925;19;20025;-60
2023/07/16 06:39:56;;;;;;;12.25;6.47;;;19.80;99.90;;;;;;7375441;19;20026;-61
2023/07/16 06:42:22;;;;;;;10.63;5.78;;;19.80;99.90;;;;;;7375585;19;20025;-60
2023/07/16 06:44:50;;;;;;;9.00;4.45;;;19.80;99.90;;;;;;7371732;19;20018;-61
2023/07/16 06:47:16;;;;;;;12.15;5.25;;;19.90;99.90;;;;;;7369845;19;20022;-61
2023/07/16 06:49:43;;;;;;;8.23;4.63;;;19.80;99.90;;;;;;7370478;19;20035;-61
2023/07/16 06:52:19;;;;;;;10.75;4.97;;;20.00;99.90;;;;;;7372362;19;20015;-61
2023/07/16 06:54:45;;;;;;;30.35;27.00;;;19.90;99.90;;;;;;7372395;19;20033;-61
2023/07/16 06:57:12;;;;;;;9.13;6.70;;;20.00;99.90;;;;;;7367527;19;20026;-62
2023/07/16 06:59:38;;;;;;;12.82;10.50;;;20.20;99.90;;;;;;7366673;19;20406;-63
2023/07/16 07:02:06;;;;;;;27.35;24.08;;;20.40;99.90;;;;;;7361396;19;20035;-61
2023/07/16 07:04:32;;;;;;;11.52;7.82;;;20.40;99.90;;;;;;7365440;19;20030;-62
2023/07/16 07:06:59;;;;;;;12.88;7.50;;;20.40;99.90;;;;;;7363847;19;20021;-60
2023/07/16 07:09:25;;;;;;;10.98;5.05;;;20.30;99.90;;;;;;7366883;19;20089;-60
2023/07/16 07:11:51;;;;;;;11.52;7.63;;;20.60;99.90;;;;;;7362504;19;20019;-61
2023/07/16 07:14:18;;;;;;;41.72;37.33;;;20.60;99.90;;;;;;7365411;19;20022;-62
2023/07/16 07:16:44;;;;;;;14.00;8.13;;;20.60;99.90;;;;;;7365131;19;20602;-61
2023/07/16 07:19:10;;;;;;;9.50;5.63;;;20.90;99.90;;;;;;7364992;19;20019;-61
2023/07/16 07:21:37;;;;;;;10.32;4.63;;;20.80;99.90;;;;;;7363952;19;20608;-61
2023/07/16 07:24:04;;;;;;;11.20;6.97;;;21.00;99.90;;;;;;7364765;19;20014;-62
2023/07/16 07:26:30;;;;;;;10.23;5.95;;;21.00;99.90;;;;;;7359539;19;20022;-62
2023/07/16 07:28:56;;;;;;;9.82;5.15;;;21.40;99.90;;;;;;7361245;19;20498;-61
2023/07/16 07:31:23;;;;;;;12.20;6.00;;;21.40;99.90;;;;;;7364970;19;20041;-61
2023/07/16 07:33:49;;;;;;;9.52;5.55;;;21.20;99.90;;;;;;7369155;19;20014;-61
2023/07/16 07:36:15;;;;;;;12.10;5.20;;;21.60;99.90;;;;;;7365600;19;20057;-61
2023/07/16 07:38:41;;;;;;;12.52;5.47;;;21.90;99.90;;;;;;7364643;19;20018;-62
2023/07/16 07:41:07;;;;;;;10.10;4.88;;;21.90;99.90;;;;;;7367010;19;20037;-63
2023/07/16 07:43:34;;;;;;;10.93;4.88;;;21.70;99.90;;;;;;7364128;19;20966;-61
2023/07/16 07:46:01;;;;;;;8.65;5.43;;;21.70;99.90;;;;;;7369450;19;20014;-62
2023/07/16 07:48:27;;;;;;;8.30;5.05;;;21.80;99.90;;;;;;7366876;19;20470;-61
2023/07/16 07:50:53;;;;;;;9.75;4.60;;;21.50;99.90;;;;;;7365253;19;20024;-63
2023/07/16 07:53:20;;;;;;;9.10;4.82;;;21.80;99.90;;;;;;7365606;19;20050;-62
2023/07/16 07:55:46;;;;;;;58.85;53.00;;;22.00;99.90;;;;;;7368897;19;20030;-63
2023/07/16 07:58:12;;;;;;;23.50;20.17;;;21.60;99.90;;;;;;7369350;19;20074;-62
2023/07/16 08:00:39;;;;;;;11.43;7.32;;;21.50;99.90;;;;;;7368522;19;22065;-63
2023/07/16 08:03:05;;;;;;;11.55;6.85;;;21.50;99.90;;;;;;7364068;19;20022;-62
2023/07/16 08:05:33;;;;;;;11.43;7.07;;;21.70;99.90;;;;;;7370627;19;20026;-65
2023/07/16 08:08:02;;;;;;;12.77;5.40;;;21.70;99.90;;;;;;7369364;19;20052;-65
2023/07/16 08:10:31;;;;;;;10.57;4.82;;;21.40;99.90;;;;;;7371841;19;20050;-65
2023/07/16 08:12:58;;;;;;;10.52;5.10;;;21.20;99.90;;;;;;7367167;19;20125;-65
2023/07/16 08:15:24;;;;;;;9.40;4.72;;;21.20;99.90;;;;;;7367935;19;20584;-65
2023/07/16 08:17:50;;;;;;;11.38;4.55;;;21.20;99.90;;;;;;7366908;19;20014;-65
2023/07/16 08:20:17;;;;;;;7.50;4.63;;;21.30;99.90;;;;;;7371566;19;20074;-65
2023/07/16 08:22:43;;;;;;;9.20;5.13;;;21.20;99.90;;;;;;7367653;19;20362;-62
2023/07/16 08:25:09;;;;;;;10.23;5.28;;;21.20;99.90;;;;;;7361910;19;20669;-61
2023/07/16 08:27:36;;;;;;;14.55;10.55;;;20.90;99.90;;;;;;7365485;19;20019;-64
2023/07/16 08:30:02;;;;;;;13.00;8.35;;;20.90;99.90;;;;;;7364939;19;20019;-63
2023/07/16 08:32:30;;;;;;;13.82;8.35;;;20.80;99.90;;;;;;7372472;19;20014;-63
2023/07/16 08:34:56;;;;;;;12.20;6.80;;;20.90;99.90;;;;;;7377148;19;20055;-63
2023/07/16 08:37:22;;;;;;;13.90;8.15;;;20.90;99.90;;;;;;7370035;19;20029;-62
2023/07/16 08:39:53;;;;;;;12.02;6.65;;;21.00;99.90;;;;;;7349169;19;20302;-63
2023/07/16 08:42:20;;;;;;;12.63;5.97;;;20.90;99.90;;;;;;7366369;19;20448;-63
2023/07/16 08:44:49;;;;;;;8.75;5.30;;;21.00;99.90;;;;;;7373993;19;20576;-63
2023/07/16 08:47:17;;;;;;;11.00;5.53;;;21.00;99.90;;;;;;7369241;19;20729;-61
2023/07/16 08:49:54;;;;;;;11.60;5.18;;;21.20;99.90;;;;;;7371648;19;20019;-60
2023/07/16 08:52:21;;;;;;;11.68;5.95;;;21.60;99.90;;;;;;7374104;19;20109;-61
2023/07/16 08:54:47;;;;;;;10.57;5.55;;;21.40;99.90;;;;;;7375075;19;20046;-61
2023/07/16 08:57:14;;;;;;;8.98;5.32;;;21.50;99.90;;;;;;7372137;19;20138;-61
2023/07/16 08:59:41;;;;;;;10.10;4.45;;;21.70;99.90;;;;;;7372289;19;20022;-61
2023/07/16 09:02:31;;;;;;;37.97;33.13;;;22.00;99.90;;;;;;7371151;19;20018;-61
2023/07/16 09:04:58;;;;;;;10.80;7.72;;;22.00;99.90;;;;;;7379629;19;20532;-61
2023/07/16 09:07:25;;;;;;;14.60;6.03;;;22.60;99.90;;;;;;7363777;19;20037;-61
2023/07/16 09:09:58;;;;;;;11.25;7.05;;;22.40;99.90;;;;;;7369594;19;20025;-61
2023/07/16 09:12:25;;;;;;;11.75;7.55;;;22.10;99.90;;;;;;7369709;19;20900;-61
2023/07/16 09:14:51;;;;;;;11.90;7.28;;;21.90;99.90;;;;;;7373347;19;20035;-61
2023/07/16 09:17:25;;;;;;;10.02;6.53;;;21.60;99.90;;;;;;7367819;19;20044;-63
2023/07/16 09:19:51;;;;;;;12.40;6.18;;;21.50;99.90;;;;;;7363872;19;20344;-63
2023/07/16 09:22:19;;;;;;;9.57;5.18;;;21.60;99.90;;;;;;7368752;19;20018;-64
2023/07/16 09:24:47;;;;;;;9.93;5.25;;;21.70;99.90;;;;;;7368780;19;20101;-63
2023/07/16 09:27:14;;;;;;;9.45;5.05;;;21.50;99.90;;;;;;7376409;19;20415;-63
2023/07/16 09:29:40;;;;;;;10.35;5.30;;;21.40;99.90;;;;;;7369997;19;20019;-63
2023/07/16 09:32:07;;;;;;;9.20;4.85;;;21.40;99.90;;;;;;7367499;19;20029;-63
2023/07/16 09:34:33;;;;;;;10.52;5.22;;;21.60;99.90;;;;;;7367063;19;20581;-63
2023/07/16 09:37:01;;;;;;;7.70;5.07;;;21.40;99.90;;;;;;7375511;19;20340;-63
2023/07/16 09:39:28;;;;;;;9.25;5.10;;;21.10;99.90;;;;;;7369568;19;20015;-63
2023/07/16 09:41:57;;;;;;;9.27;5.05;;;20.80;99.90;;;;;;7369053;19;20022;-63
2023/07/16 09:44:23;;;;;;;13.27;6.43;;;20.60;99.90;;;;;;7371537;19;20489;-63
2023/07/16 09:46:49;;;;;;;11.82;5.30;;;20.50;99.90;;;;;;7367158;19;20026;-63
2023/07/16 09:49:19;;;;;;;11.20;5.50;;;20.60;99.90;;;;;;7368527;19;20011;-63
2023/07/16 09:51:48;;;;;;;12.52;5.45;;;20.60;99.90;;;;;;7370461;19;20376;-63
2023/07/16 09:54:15;;;;;;;9.90;5.50;;;20.60;99.90;;;;;;7372592;19;20071;-63
2023/07/16 09:56:47;;;;;;;11.38;5.10;;;20.60;99.90;;;;;;7369098;19;20010;-63
2023/07/16 09:59:16;;;;;;;11.32;7.45;;;21.40;99.90;;;;;;7371338;19;20022;-63
2023/07/16 10:01:42;;;;;;;25.52;18.38;;;22.30;99.90;;;;;;7373979;19;20038;-62
2023/07/16 10:04:19;;;;;;;16.48;10.55;;;22.30;99.90;;;;;;7368685;19;20515;-61
2023/07/16 10:07:04;;;;;;;9.73;6.30;;;22.20;99.90;;;;;;7370791;19;20094;-61
2023/07/16 10:09:39;;;;;;;11.95;7.78;;;21.70;99.90;;;;;;7369090;19;20486;-61
2023/07/16 10:12:18;;;;;;;14.52;7.38;;;21.60;99.90;;;;;;7369492;19;20029;-62
2023/07/16 10:14:47;;;;;;;12.80;7.85;;;21.80;99.90;;;;;;7367067;19;20019;-62
2023/07/16 10:17:24;;;;;;;15.00;6.15;;;21.70;99.90;;;;;;7372169;19;20061;-62
2023/07/16 10:19:57;;;;;;;9.40;5.70;;;21.50;99.90;;;;;;7368657;19;20022;-63
2023/07/16 10:22:43;;;;;;;8.05;5.72;;;21.50;99.90;;;;;;7370247;19;21186;-62
2023/07/16 10:25:18;;;;;;;9.65;5.05;;;21.70;99.90;;;;;;7367619;19;20028;-62
2023/07/16 10:27:49;;;;;;;10.02;6.15;;;21.60;99.90;;;;;;7368170;19;20030;-63
2023/07/16 10:30:16;;;;;;;8.43;5.05;;;21.20;99.90;;;;;;7368518;19;20010;-62
2023/07/16 10:32:43;;;;;;;9.32;5.35;;;21.00;99.90;;;;;;7372042;19;20122;-62
2023/07/16 10:35:10;;;;;;;9.20;5.50;;;20.80;99.90;;;;;;7369717;19;20014;-62
2023/07/16 10:37:37;;;;;;;11.52;6.03;;;20.40;99.90;;;;;;7366822;19;20771;-63
2023/07/16 10:40:05;;;;;;;8.10;5.40;;;20.30;99.90;;;;;;7371214;19;20018;-62
2023/07/16 10:42:32;;;;;;;9.65;5.80;;;20.20;99.90;;;;;;7368212;19;20334;-64
2023/07/16 10:45:00;;;;;;;8.60;5.78;;;20.20;99.90;;;;;;7366963;19;20490;-63
2023/07/16 10:47:31;;;;;;;10.50;5.82;;;20.60;99.90;;;;;;7371914;19;20472;-63
2023/07/16 10:49:58;;;;;;;;;;;21.10;99.90;;;;;;7372748;19;20051;-63
2023/07/16 10:52:32;;;;;;;12.25;6.35;;;21.10;99.90;;;;;;7369838;19;19922;-61
2023/07/16 10:55:01;;;;;;;11.73;5.97;;;21.10;99.90;;;;;;7365532;19;20031;-62
2023/07/16 10:57:28;;;;;;;11.85;5.68;;;21.90;99.90;;;;;;7366151;19;20019;-61
2023/07/16 10:59:57;;;;;;;12.30;6.82;;;22.70;99.90;;;;;;7370935;19;20050;-59
2023/07/16 11:02:24;;;;;;;10.65;5.30;;;23.00;99.90;;;;;;7362608;19;20064;-60
2023/07/16 11:04:53;;;;;;;9.65;4.95;;;23.70;99.90;;;;;;7366034;19;20499;-62
2023/07/16 11:07:20;;;;;;;9.15;5.07;;;23.50;99.90;;;;;;7367531;19;20024;-62
2023/07/16 11:09:49;;;;;;;8.10;4.47;;;23.00;99.90;;;;;;7367509;19;20115;-62
2023/07/16 11:12:19;;;;;;;6.82;5.20;;;23.00;99.90;;;;;;7368709;19;20034;-62
2023/07/16 11:14:47;;;;;;;7.85;4.60;;;23.00;99.90;;;;;;7371111;19;20025;-62
2023/07/16 11:17:14;;;;;;;8.85;4.80;;;23.10;99.90;;;;;;7368670;19;20566;-62
2023/07/16 11:19:44;;;;;;;12.18;5.53;;;22.90;99.90;;;;;;7365779;19;20022;-60
2023/07/16 11:22:10;;;;;;;7.40;5.10;;;23.00;99.90;;;;;;7368968;19;20409;-62
2023/07/16 11:24:45;;;;;;;10.65;5.50;;;22.70;99.90;;;;;;7365968;19;20623;-61
2023/07/16 11:27:21;;;;;;;8.77;5.35;;;22.50;99.90;;;;;;7364533;19;20026;-61
2023/07/16 11:29:55;;;;;;;13.68;7.25;;;22.50;99.90;;;;;;7369868;19;20026;-62
2023/07/16 11:32:30;;;;;;;20.33;18.15;;;22.40;99.90;;;;;;7370223;19;20486;-61
2023/07/16 11:34:58;;;;;;;11.85;9.20;;;22.10;99.90;;;;;;7365825;19;20425;-61
2023/07/16 11:37:26;;;;;;;9.77;6.47;;;21.90;99.90;;;;;;7367650;19;20041;-61
2023/07/16 11:40:02;;;;;;;10.63;8.30;;;21.70;99.90;;;;;;7365787;19;20036;-62
2023/07/16 11:42:33;;;;;;;9.60;6.25;;;21.60;99.90;;;;;;7365682;19;20014;-63
2023/07/16 11:45:00;;;;;;;11.70;6.32;;;21.40;99.90;;;;;;7361902;19;20018;-62
2023/07/16 11:47:27;;;;;;;9.95;5.60;;;21.20;99.90;;;;;;7366020;19;20025;-63
2023/07/16 11:49:54;;;;;;;9.50;5.43;;;21.10;99.90;;;;;;7370717;19;20364;-62
2023/07/16 11:52:27;;;;;;;9.02;4.97;;;21.10;99.90;;;;;;7366775;19;20715;-62
2023/07/16 11:54:54;;;;;;;8.30;5.00;;;20.90;99.90;;;;;;7367971;19;20054;-61
2023/07/16 11:57:20;;;;;;;7.72;4.70;;;20.80;99.90;;;;;;7369415;19;20021;-62
2023/07/16 11:59:46;;;;;;;8.52;5.43;;;20.80;99.90;;;;;;7370868;19;20487;-63
2023/07/16 12:02:13;;;;;;;7.93;5.18;;;21.10;99.90;;;;;;7367294;19;20703;-62
2023/07/16 12:04:39;;;;;;;10.48;5.18;;;22.00;99.90;;;;;;7367295;19;20448;-62
2023/07/16 12:07:06;;;;;;;11.40;4.68;;;23.00;99.90;;;;;;7366807;19;20018;-64
2023/07/16 12:09:32;;;;;;;9.98;5.05;;;23.50;99.90;;;;;;7371391;19;20016;-63
2023/07/16 12:12:02;;;;;;;10.70;5.00;;;23.40;99.90;;;;;;7367652;19;20144;-62
2023/07/16 12:14:29;;;;;;;10.82;4.90;;;23.30;99.90;;;;;;7371286;19;20026;-63
2023/07/16 12:16:58;;;;;;;8.00;4.85;;;23.10;99.90;;;;;;7368374;19;20118;-62
2023/07/16 12:19:25;;;;;;;9.15;4.82;;;23.00;99.90;;;;;;7368514;19;20801;-62
2023/07/16 12:21:51;;;;;;;13.10;5.43;;;22.90;99.90;;;;;;7370287;19;20018;-61
2023/07/16 12:24:17;;;;;;;15.70;11.40;;;23.00;99.90;;;;;;7367235;19;20150;-62
2023/07/16 12:26:44;;;;;;;23.85;19.42;;;22.50;99.90;;;;;;7368378;19;20039;-60
2023/07/16 12:29:10;;;;;;;13.13;9.68;;;22.10;99.90;;;;;;7371354;19;20037;-60
2023/07/16 12:31:36;;;;;;;9.88;6.35;;;21.90;99.90;;;;;;7364484;19;20015;-60
2023/07/16 12:34:04;;;;;;;9.90;6.22;;;21.60;99.90;;;;;;7369382;19;20022;-60
2023/07/16 12:36:31;;;;;;;12.02;8.70;;;21.30;99.90;;;;;;7361254;19;20087;-62
2023/07/16 12:38:57;;;;;;;9.90;4.93;;;21.10;99.90;;;;;;7370188;19;20347;-62
2023/07/16 12:41:25;;;;;;;8.40;4.93;;;21.20;99.90;;;;;;7367189;19;20912;-62
2023/07/16 12:43:52;;;;;;;9.13;5.32;;;21.60;99.90;;;;;;7369387;19;20475;-62